Aviation Digital Data Service (ADDS)

Output produced by METARs form (0957 UTC 19 January 2019)
found at http://www.aviationweather.gov/metar/data/
 
KABY 190953Z AUTO 00000KT 3SM BR OVC008 16/15 A3000 RMK AO2 CIG 004V009 SLP158 T01560150
KABY 190823Z 1908/2006 15004KT 1/4SM FG OVC003 
     FM191300 17006KT P6SM OVC015 
     FM191600 18011KT P6SM VCSH OVC050 
     FM192100 19016G25KT P6SM -SHRA OVC040 
     FM200000 21016G25KT 6SM -TSRA BKN035CB
       
KAMG 190953Z AUTO 00000KT 8SM FEW031 13/12 A3002 RMK AO2 SLP163 T01330117
KACJ 190930Z AUTO 00000KT 2SM BR SCT002 OVC014 16/13 A3002 RMK AO2
KAHN 190951Z AUTO 09004KT 2 1/2SM BR OVC002 09/08 A3001 RMK AO2 SLP162 T00890083
KAHN 190952Z 1910/2006 08007KT 4SM BR OVC003 
     TEMPO 1915/1918 1SM -SHRA OVC003 
     FM192000 16008KT 5SM BR OVC012 
     FM200000 17011KT P6SM SHRA BKN030 
     PROB30 2000/2004 28015G25KT 2SM TSRA OVC015CB
       
KFFC 190953Z AUTO 13007KT 1/2SM FG VV002 12/11 A2995 RMK AO2 SLP143 T01170111
KRYY 190955Z AUTO 11008KT 1 3/4SM BR OVC001 11/11 A2996 RMK AO2
KRYY 190952Z 1910/2006 00000KT 5SM BR OVC003 
     FM191500 15007KT 1SM BR OVC003 
     FM191700 18008G15KT 2SM BR OVC005 
     FM191900 17012KT 6SM BR OVC012 
     FM192100 17013G21KT P6SM SHRA BKN030 
     PROB30 1923/2003 28015G25KT 2SM TSRA OVC007CB 
     FM200500 28011KT P6SM BKN025
       
KPDK 190953Z AUTO VRB05KT 3/4SM BR OVC001 10/10 A2996 RMK AO2 PRESFR SLP148 T01000100
KPDK 190952Z 1910/2006 VRB03KT 1/2SM FG VV002 
     FM191500 15007KT 1SM BR OVC003 
     FM191700 18008G15KT 2SM BR OVC005 
     FM191900 17012KT 6SM BR OVC012 
     FM192100 17013G21KT P6SM SHRA BKN030 
     PROB30 1923/2003 28015G25KT 2SM TSRA OVC007CB 
     FM200500 28011KT P6SM BKN025
       
KFTY 190953Z 00000KT 5SM BR OVC003 11/11 A2995 RMK AO2 SLP139 T01110111
KFTY 190952Z 1910/2006 14007KT 5SM BR OVC004 
     FM191500 15007KT 1SM BR OVC003 
     FM191700 18008G15KT 2SM BR OVC005 
     FM191900 17012KT 6SM BR OVC012 
     FM192100 17013G21KT P6SM SHRA BKN030 
     PROB30 1923/2003 28015G25KT 2SM TSRA OVC007CB 
     FM200500 28011KT P6SM BKN025
       
KLZU 190956Z AUTO 07005KT 1/2SM FG OVC003 08/08 A2999 RMK AO2 SLP166 T00830083
KATL 190952Z 11005KT 1/4SM R09R/1600V1800FT FG VV002 11/10 A2997 RMK AO2 TWR VIS 1/4 SLP146 T01110100 $
KATL 190952Z 1910/2012 15005KT 1/4SM FG VV002 
     FM191500 16008KT 1SM BR OVC003 
     FM191700 18012G20KT 2SM BR OVC005 
     FM191900 17013G21KT 4SM BR OVC015 
     FM192100 17014G23KT P6SM SHRA BKN030 
     PROB30 1923/2003 28015G25KT 2SM TSRA OVC007CB 
     FM200300 28012G20KT P6SM BKN025
       
KCCO 190935Z AUTO 13007KT OVC002 13/12 A2995 RMK AO2 LTG DSNT NW T01300124 PWINO
KAGS 190953Z AUTO 10003KT 5SM BR OVC004 13/12 A3003 RMK AO2 RAE0859 SLP167 P0000 T01280122
KAGS 190825Z 1908/2006 10005KT 1SM BR OVC002 
     FM191400 15006KT 6SM BR OVC007 
     FM191600 17008KT P6SM SCT007 OVC022 
     FM191900 18010G20KT P6SM SCT015 BKN035 
     FM200400 20018G26KT 2SM SHRA OVC008
       
KDNL 190953Z AUTO 10004KT 3SM BR OVC002 12/11 A3003 RMK AO2 SLP166 T01170106 TSNO
KDNL 190828Z 1908/2006 10005KT 1SM BR OVC003 
     FM191400 15006KT 6SM BR OVC007 
     FM191600 17008KT P6SM SCT007 OVC022 
     FM191900 18010G20KT P6SM SCT015 BKN035 
     FM200400 20018G26KT 2SM SHRA OVC008
       
KBGE 190935Z 10SM 17/15 A2998 RMK AO2 PWINO
KBHC 190935Z AUTO 20003KT 10SM OVC011 12/12 A3002 RMK AO2
KDZJ 190935Z AUTO 12006KT 10SM BKN023 09/07 A2998 RMK AO2 LTG DSNT W T00870073
KBIJ 190935Z AUTO 00000KT 1/2SM FG OVC003 13/13 A2998 RMK AO2
KBQK 190935Z AUTO 00000KT 10SM OVC050 10/09 A3006 RMK AO2
KSSI 190953Z AUTO 20003KT 10SM CLR 12/08 A3004 RMK AO2 SLP174 T01220078
KSSI 190520Z 1906/2006 18004KT P6SM SCT100 OVC200 
     FM191400 18010KT P6SM SCT030 BKN200 
     FM191800 19013G22KT P6SM SCT040 OVC250 
     FM200200 18011KT P6SM VCSH BKN040 OVC100
       
KCXU 190935Z AUTO 00000KT 10SM BKN009 OVC028 17/16 A3000 RMK AO1 T01660155
KCNI 190935Z AUTO 08003KT 1/4SM FG OVC003 09/08 A3000 RMK AO2
KCTJ 190935Z AUTO 13006KT 1/4SM FG 11/11 A2997 RMK AO2 T01060106
KVPC 190953Z AUTO VRB06KT 4SM BR OVC005 11/10 A2993 RMK AO2 SLP129 T01060100
KCWV 190935Z AUTO 00000KT 5SM BR BKN018 OVC025 13/13 A3004 RMK AO2 T01270125
K48A 190935Z AUTO 15003KT 1/2SM FG OVC003 14/14 A3001 RMK AO2 T01380137
KCSG 190951Z AUTO 17007KT 1/2SM R06/2200VP6000FT FG VV002 13/13 A2995 RMK AO2 PRESFR SLP139 T01330128
KCSG 190906Z 1909/2006 12004KT 1/2SM FG VV002 
     FM191000 14004KT 3/4SM BR OVC002 
     FM191600 18010KT P6SM OVC010 
     FM191800 19013G22KT P6SM -SHRA BKN040 
     FM192300 21014G24KT P6SM SHRA OVC025 
     FM200400 27012KT P6SM BKN025
       
KCKF 190935Z AUTO 20003KT 10SM OVC008 15/15 A3002 RMK AO2 T01520148
KAJR 190935Z AUTO 10003KT 3/4SM +RA OVC003 08/08 A3002 RMK AO2 LTG DSNT S T00810081
KCVC 190935Z AUTO 09003KT 1/4SM OVC003 11/11 A2999 RMK AO2 LTG DSNT NW PNO
KPUJ 190935Z AUTO 14004KT M1/4SM FG OVC002 10/ A2996 RMK AO2
KDNN 190935Z AUTO 13009KT 7SM OVC011 10/10 A2995 RMK AO2 LTG DSNT W
K17J 190930Z AUTO 18004KT 5SM BR OVC003 16/15 A2998 RMK AO2 T01570155
KDQH 190935Z AUTO 00000KT 10SM OVC006 14/13 A3003 RMK AO2 T01360132
KDBN 190935Z AUTO 00000KT 2SM BR OVC003 13/13 A3003 RMK AO2
KEZM 190935Z AUTO 00000KT 2SM BR OVC003 14/14 A3004 RMK AO2 T01420142
K49A 190935Z AUTO 00000KT 5SM BR BKN011 OVC017 09/08 A2999 RMK AO2 T00880078
KFZG 190935Z AUTO 21005KT 4SM OVC003 16/16 A3003 RMK AO2 T01570157 PWINO
KGVL 190953Z AUTO 09007KT 1/4SM FG VV002 08/08 A3001 RMK AO2 SLP158 T00830083
K3J7 190935Z AUTO 00000KT 1 1/2SM BR OVC002 11/11 A2999 RMK AO2 LTG DSNT NW
K6A2 190935Z AUTO 00000KT 1/4SM OVC002 11/10 A3000 RMK AO2
KAZE 190935Z AUTO 00000KT 3SM BR OVC005 15/14 A3002 RMK AO2 T01520137
KLHW 190856Z AUTO 00000KT 9SM FEW031 11/11 A3003 RMK AO2 SLP172 T01090107 57013 $
KJZP 190935Z AUTO 18009KT 3/4SM BR OVC003 09/09 A3001 RMK AO2 T00850085 PNO
KJES 190938Z AUTO 00000KT 10SM SCT029 12/10 A3004 RMK AO2
K9A5 190935Z AUTO 00000KT 4SM OVC006 10/10 A2992 RMK AO2 T00970097
KLGC 190935Z AUTO 13005KT 2SM BR OVC002 14/13 A2995 RMK AO2 LTG DSNT NW T01350132
K2J3 190935Z AUTO 15004KT 5SM BR OVC004 13/13 A3002 RMK AO2 T0133////
KMCN 190953Z AUTO 17004KT 1/4SM FG VV002 13/13 A3000 RMK AO2 SLP157 T01330133
KMCN 190906Z 1909/2006 00000KT 1/4SM FG VV002 
     FM191600 18009KT P6SM OVC010 
     FM192000 19014G23KT P6SM -SHRA BKN100 
     FM200100 20014G22KT P6SM SHRA OVC030 
     FM200400 23012KT P6SM BKN020
       
KMLJ 190935Z AUTO 00000KT 1/2SM FG OVC001 12/12 A3001 RMK AO2
K2J5 190935Z AUTO 17003KT 10SM BKN015 BKN023 13/12 A3003 RMK AO2 PWINO T01270116
KD73 190935Z AUTO 07004KT 1/4SM FG OVC002 09/09 A3001 RMK AO2 T00900090
KMGR 190935Z AUTO 00000KT 10SM OVC004 15/15 A3001 RMK AO2
KPXE 190935Z AUTO 15003KT 1/4SM FG OVC003 13/13 A3001 RMK AO2 T01350134
KRMG 190953Z AUTO 13006KT 5SM BR OVC003 11/10 A2990 RMK AO2 SLP123 T01110100
KSAV 190953Z AUTO 00000KT 1 1/2SM BR CLR 12/11 A3004 RMK AO2 SLP172 T01170111
KSAV 190538Z 1906/2006 15004KT P6SM OVC035 
     TEMPO 1906/1909 16004KT P6SM FEW006 OVC025 
     FM190900 VRB03KT P6SM OVC030 
     FM191500 17008KT P6SM OVC060 
     FM191800 18014G24KT P6SM BKN060 
     FM200200 19014G25KT P6SM SHRA OVC030
       
KTBR 190935Z AUTO 00000KT 10SM OVC022 13/12 A3004 RMK AO2 T01250120
KSBO 190935Z AUTO 00000KT 4SM BR OVC008 13/13 A3003 RMK AO2
KJYL 190935Z AUTO 00000KT 10SM BKN026 OVC031 13/13 A3005 RMK AO2 T01310125
KOPN 190935Z AUTO 00000KT 1/4SM FG OVC003 12/11 A3001 RMK AO2
KTVI 190935Z AUTO 21003KT 10SM OVC004 15/15 A3002 RMK AO2
KHQU 190935Z AUTO 14004KT 1/4SM FG OVC002 11/10 A3008 RMK AO2 T01070105
KTMA 190935Z AUTO 23005KT 5SM HZ OVC002 A3001 RMK AO2
KTOC 190935Z AUTO 08004KT 7SM OVC005 09/08 A3004 RMK AO2 T00910080
KVLD 190953Z AUTO 00000KT 10SM OVC070 13/13 A3002 RMK AO2 SLP174 T01330128
KVLD 190533Z 1906/2006 00000KT 5SM BR BKN050 
     FM191200 17004KT P6SM OVC100 
     FM191500 17007KT P6SM BKN250 
     FM192100 19012G20KT P6SM VCSH OVC100 
     FM200000 21015G20KT 6SM -TSRA OVC040CB
       
KVDI 190935Z AUTO 00000KT 10SM OVC008 14/12 A3003 RMK AO2
KAYS 190935Z AUTO 19005KT 10SM SCT046 14/12 A3002 RMK AO2 T01410115
KWDR 190935Z AUTO 00000KT 1/2SM FG OVC003 08/07 A3004 RMK AO2 LTG DSNT NW